sensor_id;sensor_type;location;lat;lon;timestamp;temperature;humidity
53802;DHT22;39709;53.334;6.534;2023-03-08T00:00:13;-0.60;99.90
53802;DHT22;39709;53.334;6.534;2023-03-08T00:02:39;-0.70;99.90
53802;DHT22;39709;53.334;6.534;2023-03-08T00:05:05;0.00;99.90
53802;DHT22;39709;53.334;6.534;2023-03-08T00:07:32;-0.10;99.90
53802;DHT22;39709;53.334;6.534;2023-03-08T00:09:58;0.00;99.90
53802;DHT22;39709;53.334;6.534;2023-03-08T00:12:24;-1.10;99.90
53802;DHT22;39709;53.334;6.534;2023-03-08T00:14:49;0.10;99.90
53802;DHT22;39709;53.334;6.534;2023-03-08T00:17:16;0.00;99.90
53802;DHT22;39709;53.334;6.534;2023-03-08T00:19:43;-1.00;99.90
53802;DHT22;39709;53.334;6.534;2023-03-08T00:22:09;0.00;99.90
53802;DHT22;39709;53.334;6.534;2023-03-08T00:24:35;-0.20;99.90
53802;DHT22;39709;53.334;6.534;2023-03-08T00:27:01;-1.20;99.90
53802;DHT22;39709;53.334;6.534;2023-03-08T00:29:27;-1.00;99.90
53802;DHT22;39709;53.334;6.534;2023-03-08T00:31:52;-0.30;99.90
53802;DHT22;39709;53.334;6.534;2023-03-08T00:34:18;-0.30;99.90
53802;DHT22;39709;53.334;6.534;2023-03-08T00:36:44;-0.30;99.90
53802;DHT22;39709;53.334;6.534;2023-03-08T00:39:10;-0.50;99.90
53802;DHT22;39709;53.334;6.534;2023-03-08T00:41:36;-1.20;99.90
53802;DHT22;39709;53.334;6.534;2023-03-08T00:44:03;-0.40;99.90
53802;DHT22;39709;53.334;6.534;2023-03-08T00:46:28;-1.20;99.90
53802;DHT22;39709;53.334;6.534;2023-03-08T00:48:54;-1.40;99.90
53802;DHT22;39709;53.334;6.534;2023-03-08T00:51:20;-1.50;99.90
53802;DHT22;39709;53.334;6.534;2023-03-08T00:53:46;-1.10;99.90
53802;DHT22;39709;53.334;6.534;2023-03-08T00:56:12;-0.60;99.90
53802;DHT22;39709;53.334;6.534;2023-03-08T00:58:39;-1.20;99.90
53802;DHT22;39709;53.334;6.534;2023-03-08T01:01:07;-0.20;99.90
53802;DHT22;39709;53.334;6.534;2023-03-08T01:03:34;-0.20;99.90
53802;DHT22;39709;53.334;6.534;2023-03-08T01:06:05;-0.10;99.90
53802;DHT22;39709;53.334;6.534;2023-03-08T01:08:32;0.10;99.90
53802;DHT22;39709;53.334;6.534;2023-03-08T01:10:59;-0.70;99.90
53802;DHT22;39709;53.334;6.534;2023-03-08T01:13:29;0.10;99.90
53802;DHT22;39709;53.334;6.534;2023-03-08T01:15:55;0.30;99.90
53802;DHT22;39709;53.334;6.534;2023-03-08T01:18:21;-0.50;99.90
53802;DHT22;39709;53.334;6.534;2023-03-08T01:21:02;0.30;99.90
53802;DHT22;39709;53.334;6.534;2023-03-08T01:23:28;0.10;99.90
53802;DHT22;39709;53.334;6.534;2023-03-08T01:26:12;-0.40;99.90
53802;DHT22;39709;53.334;6.534;2023-03-08T01:28:41;-0.30;99.90
53802;DHT22;39709;53.334;6.534;2023-03-08T01:37:33;-1.20;99.90
53802;DHT22;39709;53.334;6.534;2023-03-08T01:39:59;-1.00;99.90
53802;DHT22;39709;53.334;6.534;2023-03-08T01:42:26;-0.80;99.90
53802;DHT22;39709;53.334;6.534;2023-03-08T01:44:59;-1.40;99.90
53802;DHT22;39709;53.334;6.534;2023-03-08T01:47:30;-0.90;99.90
53802;DHT22;39709;53.334;6.534;2023-03-08T01:49:59;-1.50;99.90
53802;DHT22;39709;53.334;6.534;2023-03-08T01:52:53;-1.00;99.90
53802;DHT22;39709;53.334;6.534;2023-03-08T01:55:19;-1.20;99.90
53802;DHT22;39709;53.334;6.534;2023-03-08T01:57:51;-1.10;99.90
53802;DHT22;39709;53.334;6.534;2023-03-08T02:00:21;-1.70;99.90
53802;DHT22;39709;53.334;6.534;2023-03-08T02:05:19;-1.30;99.90
53802;DHT22;39709;53.334;6.534;2023-03-08T02:07:45;-1.20;99.90
53802;DHT22;39709;53.334;6.534;2023-03-08T02:10:12;-1.80;99.90
53802;DHT22;39709;53.334;6.534;2023-03-08T02:12:38;-1.30;99.90
53802;DHT22;39709;53.334;6.534;2023-03-08T02:15:08;-2.00;99.90
53802;DHT22;39709;53.334;6.534;2023-03-08T02:17:37;-2.00;99.90
53802;DHT22;39709;53.334;6.534;2023-03-08T02:22:40;-1.60;99.90
53802;DHT22;39709;53.334;6.534;2023-03-08T02:25:14;-1.50;99.90
53802;DHT22;39709;53.334;6.534;2023-03-08T02:27:40;-1.40;99.90
53802;DHT22;39709;53.334;6.534;2023-03-08T02:30:07;-1.50;99.90
53802;DHT22;39709;53.334;6.534;2023-03-08T02:32:33;-2.10;99.90
53802;DHT22;39709;53.334;6.534;2023-03-08T02:34:58;-1.50;99.90
53802;DHT22;39709;53.334;6.534;2023-03-08T02:37:24;-1.60;99.90
53802;DHT22;39709;53.334;6.534;2023-03-08T02:39:50;-1.30;99.90
53802;DHT22;39709;53.334;6.534;2023-03-08T02:42:16;-1.50;99.90
53802;DHT22;39709;53.334;6.534;2023-03-08T02:44:42;-1.80;99.90
53802;DHT22;39709;53.334;6.534;2023-03-08T02:47:08;-1.00;99.90
53802;DHT22;39709;53.334;6.534;2023-03-08T02:49:33;-1.60;99.90
53802;DHT22;39709;53.334;6.534;2023-03-08T02:51:59;-2.10;99.90
53802;DHT22;39709;53.334;6.534;2023-03-08T02:54:25;-1.50;99.90
53802;DHT22;39709;53.334;6.534;2023-03-08T02:56:50;-1.70;99.90
53802;DHT22;39709;53.334;6.534;2023-03-08T02:59:16;-2.20;99.90
53802;DHT22;39709;53.334;6.534;2023-03-08T03:01:42;-2.20;99.90
53802;DHT22;39709;53.334;6.534;2023-03-08T03:04:07;-1.90;99.90
53802;DHT22;39709;53.334;6.534;2023-03-08T03:06:33;-1.60;99.90
53802;DHT22;39709;53.334;6.534;2023-03-08T03:08:59;-2.20;99.90
53802;DHT22;39709;53.334;6.534;2023-03-08T03:11:24;-1.60;99.90
53802;DHT22;39709;53.334;6.534;2023-03-08T03:13:56;-1.90;99.90
53802;DHT22;39709;53.334;6.534;2023-03-08T03:16:23;-1.60;99.90
53802;DHT22;39709;53.334;6.534;2023-03-08T03:18:48;-2.30;99.90
53802;DHT22;39709;53.334;6.534;2023-03-08T03:21:14;-2.30;99.90
53802;DHT22;39709;53.334;6.534;2023-03-08T03:23:40;-2.30;99.90
53802;DHT22;39709;53.334;6.534;2023-03-08T03:26:14;-1.50;99.90
53802;DHT22;39709;53.334;6.534;2023-03-08T03:28:41;-1.60;99.90
53802;DHT22;39709;53.334;6.534;2023-03-08T03:31:13;-2.10;99.90
53802;DHT22;39709;53.334;6.534;2023-03-08T03:33:39;-2.00;99.90
53802;DHT22;39709;53.334;6.534;2023-03-08T03:36:06;-1.30;99.90
53802;DHT22;39709;53.334;6.534;2023-03-08T03:38:32;-1.30;99.90
53802;DHT22;39709;53.334;6.534;2023-03-08T03:41:06;-1.30;99.90
53802;DHT22;39709;53.334;6.534;2023-03-08T03:43:33;-1.80;99.90
53802;DHT22;39709;53.334;6.534;2023-03-08T03:46:01;-1.00;99.90
53802;DHT22;39709;53.334;6.534;2023-03-08T03:48:27;-1.60;99.90
53802;DHT22;39709;53.334;6.534;2023-03-08T03:50:57;-1.10;99.90
53802;DHT22;39709;53.334;6.534;2023-03-08T03:53:24;-1.00;99.90
53802;DHT22;39709;53.334;6.534;2023-03-08T03:55:49;-1.50;99.90
53802;DHT22;39709;53.334;6.534;2023-03-08T03:58:15;-0.90;99.90
53802;DHT22;39709;53.334;6.534;2023-03-08T04:00:41;-1.70;99.90
53802;DHT22;39709;53.334;6.534;2023-03-08T04:03:07;-1.40;99.90
53802;DHT22;39709;53.334;6.534;2023-03-08T04:05:33;-1.20;99.90
53802;DHT22;39709;53.334;6.534;2023-03-08T04:07:58;-1.50;99.90
53802;DHT22;39709;53.334;6.534;2023-03-08T04:10:24;-1.60;99.90
53802;DHT22;39709;53.334;6.534;2023-03-08T04:12:51;-1.50;99.90
53802;DHT22;39709;53.334;6.534;2023-03-08T04:15:17;-1.90;99.90
53802;DHT22;39709;53.334;6.534;2023-03-08T04:17:43;-1.20;99.90
53802;DHT22;39709;53.334;6.534;2023-03-08T04:20:09;-2.00;99.90
53802;DHT22;39709;53.334;6.534;2023-03-08T04:22:35;-1.90;99.90
53802;DHT22;39709;53.334;6.534;2023-03-08T04:25:01;-2.10;99.90
53802;DHT22;39709;53.334;6.534;2023-03-08T04:27:26;-2.00;99.90
53802;DHT22;39709;53.334;6.534;2023-03-08T04:29:52;-1.70;99.90
53802;DHT22;39709;53.334;6.534;2023-03-08T04:32:18;-1.40;99.90
53802;DHT22;39709;53.334;6.534;2023-03-08T04:34:43;-2.20;99.90
53802;DHT22;39709;53.334;6.534;2023-03-08T04:37:12;-1.40;99.90
53802;DHT22;39709;53.334;6.534;2023-03-08T04:39:38;-1.50;99.90
53802;DHT22;39709;53.334;6.534;2023-03-08T04:42:05;-1.60;99.90
53802;DHT22;39709;53.334;6.534;2023-03-08T04:44:31;-1.80;99.90
53802;DHT22;39709;53.334;6.534;2023-03-08T04:46:56;-2.20;99.90
53802;DHT22;39709;53.334;6.534;2023-03-08T04:49:23;-2.30;99.90
53802;DHT22;39709;53.334;6.534;2023-03-08T04:51:49;-1.60;99.90
53802;DHT22;39709;53.334;6.534;2023-03-08T04:54:15;-1.60;99.90
53802;DHT22;39709;53.334;6.534;2023-03-08T04:56:40;-1.70;99.90
53802;DHT22;39709;53.334;6.534;2023-03-08T04:59:06;-1.70;99.90
53802;DHT22;39709;53.334;6.534;2023-03-08T05:01:32;-1.90;99.90
53802;DHT22;39709;53.334;6.534;2023-03-08T05:03:58;-2.50;99.90
53802;DHT22;39709;53.334;6.534;2023-03-08T05:06:25;-2.10;99.90
53802;DHT22;39709;53.334;6.534;2023-03-08T05:08:52;-2.50;99.90
53802;DHT22;39709;53.334;6.534;2023-03-08T05:11:21;-2.10;99.90
53802;DHT22;39709;53.334;6.534;2023-03-08T05:13:47;-1.70;99.90
53802;DHT22;39709;53.334;6.534;2023-03-08T05:16:13;-2.50;99.90
53802;DHT22;39709;53.334;6.534;2023-03-08T05:18:38;-1.70;99.90
53802;DHT22;39709;53.334;6.534;2023-03-08T05:21:06;-2.00;99.90
53802;DHT22;39709;53.334;6.534;2023-03-08T05:23:33;-2.40;99.90
53802;DHT22;39709;53.334;6.534;2023-03-08T05:26:00;-1.90;99.90
53802;DHT22;39709;53.334;6.534;2023-03-08T05:28:28;-1.60;99.90
53802;DHT22;39709;53.334;6.534;2023-03-08T05:31:06;-1.60;99.90
53802;DHT22;39709;53.334;6.534;2023-03-08T05:33:33;-1.70;99.90
53802;DHT22;39709;53.334;6.534;2023-03-08T05:35:59;-2.20;99.90
53802;DHT22;39709;53.334;6.534;2023-03-08T05:38:25;-2.20;99.90
53802;DHT22;39709;53.334;6.534;2023-03-08T05:40:51;-1.80;99.90
53802;DHT22;39709;53.334;6.534;2023-03-08T05:43:17;-2.10;99.90
53802;DHT22;39709;53.334;6.534;2023-03-08T05:45:43;-1.50;99.90
53802;DHT22;39709;53.334;6.534;2023-03-08T05:48:18;-1.40;99.90
53802;DHT22;39709;53.334;6.534;2023-03-08T05:50:43;-1.50;99.90
53802;DHT22;39709;53.334;6.534;2023-03-08T05:53:09;-2.00;99.90
53802;DHT22;39709;53.334;6.534;2023-03-08T05:55:35;-1.70;99.90
53802;DHT22;39709;53.334;6.534;2023-03-08T05:58:00;-1.90;99.90
53802;DHT22;39709;53.334;6.534;2023-03-08T06:00:26;-1.90;99.90
53802;DHT22;39709;53.334;6.534;2023-03-08T06:02:52;-2.20;99.90
53802;DHT22;39709;53.334;6.534;2023-03-08T06:05:17;-1.50;99.90
53802;DHT22;39709;53.334;6.534;2023-03-08T06:07:43;-2.00;99.90
53802;DHT22;39709;53.334;6.534;2023-03-08T06:10:09;-2.00;99.90
53802;DHT22;39709;53.334;6.534;2023-03-08T06:12:35;-1.80;99.90
53802;DHT22;39709;53.334;6.534;2023-03-08T06:15:00;-1.20;99.90
53802;DHT22;39709;53.334;6.534;2023-03-08T06:17:26;-2.20;99.90
53802;DHT22;39709;53.334;6.534;2023-03-08T06:19:52;-1.30;99.90
53802;DHT22;39709;53.334;6.534;2023-03-08T06:22:17;-2.20;99.90
53802;DHT22;39709;53.334;6.534;2023-03-08T06:24:43;-2.00;99.90
53802;DHT22;39709;53.334;6.534;2023-03-08T06:27:09;-1.30;99.90
53802;DHT22;39709;53.334;6.534;2023-03-08T06:29:34;-1.90;99.90
53802;DHT22;39709;53.334;6.534;2023-03-08T06:32:00;-1.90;99.90
53802;DHT22;39709;53.334;6.534;2023-03-08T06:34:26;-2.30;99.90
53802;DHT22;39709;53.334;6.534;2023-03-08T06:36:51;-2.20;99.90
53802;DHT22;39709;53.334;6.534;2023-03-08T06:39:17;-2.10;99.90
53802;DHT22;39709;53.334;6.534;2023-03-08T06:41:43;-1.30;99.90
53802;DHT22;39709;53.334;6.534;2023-03-08T06:44:08;-1.40;99.90
53802;DHT22;39709;53.334;6.534;2023-03-08T06:46:34;-1.60;99.90
53802;DHT22;39709;53.334;6.534;2023-03-08T06:49:00;-1.20;99.90
53802;DHT22;39709;53.334;6.534;2023-03-08T06:51:26;-1.00;99.90
53802;DHT22;39709;53.334;6.534;2023-03-08T06:53:51;-1.80;99.90
53802;DHT22;39709;53.334;6.534;2023-03-08T06:56:17;-1.60;99.90
53802;DHT22;39709;53.334;6.534;2023-03-08T06:58:43;-0.60;99.90
53802;DHT22;39709;53.334;6.534;2023-03-08T07:01:09;-1.70;99.90
53802;DHT22;39709;53.334;6.534;2023-03-08T07:03:36;-1.60;99.90
53802;DHT22;39709;53.334;6.534;2023-03-08T07:06:07;-1.90;99.90
53802;DHT22;39709;53.334;6.534;2023-03-08T07:08:34;-1.80;99.90
53802;DHT22;39709;53.334;6.534;2023-03-08T07:11:00;-1.50;99.90
53802;DHT22;39709;53.334;6.534;2023-03-08T07:13:27;-1.50;99.90
53802;DHT22;39709;53.334;6.534;2023-03-08T07:15:54;-1.00;99.90
53802;DHT22;39709;53.334;6.534;2023-03-08T07:18:20;-1.70;99.90
53802;DHT22;39709;53.334;6.534;2023-03-08T07:20:51;-1.10;99.90
53802;DHT22;39709;53.334;6.534;2023-03-08T07:23:17;-1.60;99.90
53802;DHT22;39709;53.334;6.534;2023-03-08T07:25:43;-1.00;99.90
53802;DHT22;39709;53.334;6.534;2023-03-08T07:28:08;-1.40;99.90
53802;DHT22;39709;53.334;6.534;2023-03-08T07:30:34;-1.40;99.90
53802;DHT22;39709;53.334;6.534;2023-03-08T07:33:00;-1.40;99.90
53802;DHT22;39709;53.334;6.534;2023-03-08T07:35:26;-1.00;99.90
53802;DHT22;39709;53.334;6.534;2023-03-08T07:37:51;-0.80;99.90
53802;DHT22;39709;53.334;6.534;2023-03-08T07:40:17;-0.80;99.90
53802;DHT22;39709;53.334;6.534;2023-03-08T07:42:43;-1.20;99.90
53802;DHT22;39709;53.334;6.534;2023-03-08T07:45:10;-1.30;99.90
53802;DHT22;39709;53.334;6.534;2023-03-08T07:47:36;-0.70;99.90
53802;DHT22;39709;53.334;6.534;2023-03-08T07:50:02;-0.70;99.90
53802;DHT22;39709;53.334;6.534;2023-03-08T07:52:29;-0.60;99.90
53802;DHT22;39709;53.334;6.534;2023-03-08T07:54:55;-0.60;99.90
53802;DHT22;39709;53.334;6.534;2023-03-08T07:57:22;-0.40;99.90
53802;DHT22;39709;53.334;6.534;2023-03-08T07:59:49;-0.80;99.90
53802;DHT22;39709;53.334;6.534;2023-03-08T08:02:15;-0.50;99.90
53802;DHT22;39709;53.334;6.534;2023-03-08T08:04:40;-1.00;99.90
53802;DHT22;39709;53.334;6.534;2023-03-08T08:07:10;-0.60;99.90
53802;DHT22;39709;53.334;6.534;2023-03-08T08:09:36;-0.60;99.90
53802;DHT22;39709;53.334;6.534;2023-03-08T08:12:04;-0.40;99.90
53802;DHT22;39709;53.334;6.534;2023-03-08T08:14:30;-0.30;99.90
53802;DHT22;39709;53.334;6.534;2023-03-08T08:16:56;-0.30;99.90
53802;DHT22;39709;53.334;6.534;2023-03-08T08:19:22;-0.70;99.90
53802;DHT22;39709;53.334;6.534;2023-03-08T08:21:47;-0.40;99.90
53802;DHT22;39709;53.334;6.534;2023-03-08T08:24:14;-0.20;99.90
53802;DHT22;39709;53.334;6.534;2023-03-08T08:26:40;-0.10;99.90
53802;DHT22;39709;53.334;6.534;2023-03-08T08:29:06;-0.20;99.90
53802;DHT22;39709;53.334;6.534;2023-03-08T08:31:32;-0.50;99.90
53802;DHT22;39709;53.334;6.534;2023-03-08T08:33:58;-0.10;99.90
53802;DHT22;39709;53.334;6.534;2023-03-08T08:36:24;-0.30;99.90
53802;DHT22;39709;53.334;6.534;2023-03-08T08:38:50;-0.20;99.90
53802;DHT22;39709;53.334;6.534;2023-03-08T08:41:18;0.10;99.90
53802;DHT22;39709;53.334;6.534;2023-03-08T08:43:45;0.30;99.90
53802;DHT22;39709;53.334;6.534;2023-03-08T08:46:11;0.30;99.90
53802;DHT22;39709;53.334;6.534;2023-03-08T08:48:38;0.10;99.90
53802;DHT22;39709;53.334;6.534;2023-03-08T08:51:05;0.00;99.90
53802;DHT22;39709;53.334;6.534;2023-03-08T08:53:31;0.40;99.90
53802;DHT22;39709;53.334;6.534;2023-03-08T08:55:57;0.40;99.90
53802;DHT22;39709;53.334;6.534;2023-03-08T08:58:23;0.10;99.90
53802;DHT22;39709;53.334;6.534;2023-03-08T09:00:49;0.60;99.90
53802;DHT22;39709;53.334;6.534;2023-03-08T09:03:14;0.50;99.90
53802;DHT22;39709;53.334;6.534;2023-03-08T09:05:42;0.50;96.40
53802;DHT22;39709;53.334;6.534;2023-03-08T09:08:09;0.50;95.00
53802;DHT22;39709;53.334;6.534;2023-03-08T09:10:37;0.40;92.40
53802;DHT22;39709;53.334;6.534;2023-03-08T09:13:04;0.40;93.30
53802;DHT22;39709;53.334;6.534;2023-03-08T09:15:30;0.60;96.30
53802;DHT22;39709;53.334;6.534;2023-03-08T09:17:56;0.50;99.90
53802;DHT22;39709;53.334;6.534;2023-03-08T09:20:21;0.60;97.20
53802;DHT22;39709;53.334;6.534;2023-03-08T09:22:47;0.90;99.90
53802;DHT22;39709;53.334;6.534;2023-03-08T09:25:13;1.00;99.50
53802;DHT22;39709;53.334;6.534;2023-03-08T09:27:40;0.60;97.20
53802;DHT22;39709;53.334;6.534;2023-03-08T09:30:11;1.10;99.90
53802;DHT22;39709;53.334;6.534;2023-03-08T09:32:37;0.80;99.90
53802;DHT22;39709;53.334;6.534;2023-03-08T09:35:03;0.70;94.50
53802;DHT22;39709;53.334;6.534;2023-03-08T09:37:30;1.20;99.90
53802;DHT22;39709;53.334;6.534;2023-03-08T09:39:55;1.20;99.90
53802;DHT22;39709;53.334;6.534;2023-03-08T09:42:39;1.20;99.90
53802;DHT22;39709;53.334;6.534;2023-03-08T09:47:51;1.30;99.90
53802;DHT22;39709;53.334;6.534;2023-03-08T09:50:51;1.30;99.90
53802;DHT22;39709;53.334;6.534;2023-03-08T09:53:33;1.40;99.90
53802;DHT22;39709;53.334;6.534;2023-03-08T09:56:09;1.40;99.90
53802;DHT22;39709;53.334;6.534;2023-03-08T09:59:03;1.30;99.90
53802;DHT22;39709;53.334;6.534;2023-03-08T10:09:37;1.20;99.90
53802;DHT22;39709;53.334;6.534;2023-03-08T10:15:07;1.40;94.90
53802;DHT22;39709;53.334;6.534;2023-03-08T10:18:03;1.60;92.30
53802;DHT22;39709;53.334;6.534;2023-03-08T10:20:33;1.50;96.90
53802;DHT22;39709;53.334;6.534;2023-03-08T10:23:12;1.70;66.50
53802;DHT22;39709;53.334;6.534;2023-03-08T10:25:38;2.00;79.60
53802;DHT22;39709;53.334;6.534;2023-03-08T10:28:14;1.80;97.90
53802;DHT22;39709;53.334;6.534;2023-03-08T10:30:56;2.00;67.70
53802;DHT22;39709;53.334;6.534;2023-03-08T10:33:31;2.10;71.90
53802;DHT22;39709;53.334;6.534;2023-03-08T10:36:02;1.80;85.00
53802;DHT22;39709;53.334;6.534;2023-03-08T10:38:33;2.00;24.10
53802;DHT22;39709;53.334;6.534;2023-03-08T10:41:16;2.30;17.80
53802;DHT22;39709;53.334;6.534;2023-03-08T10:43:51;2.10;19.80
53802;DHT22;39709;53.334;6.534;2023-03-08T10:48:44;2.30;35.80
53802;DHT22;39709;53.334;6.534;2023-03-08T10:53:58;2.40;12.10
53802;DHT22;39709;53.334;6.534;2023-03-08T10:56:50;2.40;7.50
53802;DHT22;39709;53.334;6.534;2023-03-08T10:59:19;2.30;1.30
53802;DHT22;39709;53.334;6.534;2023-03-08T11:01:49;2.70;3.50
53802;DHT22;39709;53.334;6.534;2023-03-08T11:04:18;2.50;1.00
53802;DHT22;39709;53.334;6.534;2023-03-08T11:06:44;2.50;1.00
53802;DHT22;39709;53.334;6.534;2023-03-08T11:11:50;2.50;1.00
53802;DHT22;39709;53.334;6.534;2023-03-08T11:14:16;2.90;1.00
53802;DHT22;39709;53.334;6.534;2023-03-08T11:35:49;3.00;1.00
53802;DHT22;39709;53.334;6.534;2023-03-08T11:56:49;3.20;1.00
53802;DHT22;39709;53.334;6.534;2023-03-08T11:59:23;3.20;1.00
53802;DHT22;39709;53.334;6.534;2023-03-08T12:07:45;3.50;1.00
53802;DHT22;39709;53.334;6.534;2023-03-08T12:10:20;3.40;1.00
53802;DHT22;39709;53.334;6.534;2023-03-08T12:13:11;3.50;1.00
53802;DHT22;39709;53.334;6.534;2023-03-08T12:15:46;3.70;1.00
53802;DHT22;39709;53.334;6.534;2023-03-08T12:20:42;3.80;1.00
53802;DHT22;39709;53.334;6.534;2023-03-08T12:26:03;3.60;1.00
53802;DHT22;39709;53.334;6.534;2023-03-08T12:28:45;4.20;1.00
53802;DHT22;39709;53.334;6.534;2023-03-08T12:31:28;3.90;1.00
53802;DHT22;39709;53.334;6.534;2023-03-08T12:33:56;4.30;21.40
53802;DHT22;39709;53.334;6.534;2023-03-08T12:36:43;4.10;1.00
53802;DHT22;39709;53.334;6.534;2023-03-08T12:39:30;3.90;99.90
53802;DHT22;39709;53.334;6.534;2023-03-08T12:42:11;4.30;1.00
53802;DHT22;39709;53.334;6.534;2023-03-08T12:44:38;4.00;1.00
53802;DHT22;39709;53.334;6.534;2023-03-08T12:49:42;3.80;99.90
53802;DHT22;39709;53.334;6.534;2023-03-08T12:55:02;4.30;1.00
53802;DHT22;39709;53.334;6.534;2023-03-08T12:57:37;4.10;1.00
53802;DHT22;39709;53.334;6.534;2023-03-08T13:03:28;4.30;1.00
53802;DHT22;39709;53.334;6.534;2023-03-08T13:06:00;4.20;99.90
53802;DHT22;39709;53.334;6.534;2023-03-08T13:08:41;4.20;1.00
53802;DHT22;39709;53.334;6.534;2023-03-08T13:11:11;4.80;1.00
53802;DHT22;39709;53.334;6.534;2023-03-08T13:18:42;4.70;1.00
53802;DHT22;39709;53.334;6.534;2023-03-08T13:26:42;4.80;1.00
53802;DHT22;39709;53.334;6.534;2023-03-08T13:29:18;5.20;81.20
53802;DHT22;39709;53.334;6.534;2023-03-08T13:31:44;5.20;99.10
53802;DHT22;39709;53.334;6.534;2023-03-08T13:34:37;4.90;29.80
53802;DHT22;39709;53.334;6.534;2023-03-08T13:37:03;5.40;99.90
53802;DHT22;39709;53.334;6.534;2023-03-08T13:39:30;5.50;99.90
53802;DHT22;39709;53.334;6.534;2023-03-08T13:42:10;5.30;99.90
53802;DHT22;39709;53.334;6.534;2023-03-08T13:44:36;5.30;99.90
53802;DHT22;39709;53.334;6.534;2023-03-08T13:49:47;5.30;99.90
53802;DHT22;39709;53.334;6.534;2023-03-08T13:52:20;5.40;99.90
53802;DHT22;39709;53.334;6.534;2023-03-08T13:54:50;5.50;99.90
53802;DHT22;39709;53.334;6.534;2023-03-08T13:57:23;5.40;99.90
53802;DHT22;39709;53.334;6.534;2023-03-08T13:59:52;5.40;99.90
53802;DHT22;39709;53.334;6.534;2023-03-08T14:02:24;5.20;99.90
53802;DHT22;39709;53.334;6.534;2023-03-08T14:04:50;5.40;99.90
53802;DHT22;39709;53.334;6.534;2023-03-08T14:07:22;5.60;99.90
53802;DHT22;39709;53.334;6.534;2023-03-08T14:09:48;5.50;99.90
53802;DHT22;39709;53.334;6.534;2023-03-08T14:12:19;5.50;99.90
53802;DHT22;39709;53.334;6.534;2023-03-08T14:14:50;5.60;99.90
53802;DHT22;39709;53.334;6.534;2023-03-08T14:17:22;5.20;99.90
53802;DHT22;39709;53.334;6.534;2023-03-08T14:19:56;5.40;99.90
53802;DHT22;39709;53.334;6.534;2023-03-08T14:22:25;5.00;53.40
53802;DHT22;39709;53.334;6.534;2023-03-08T14:24:57;5.20;99.90
53802;DHT22;39709;53.334;6.534;2023-03-08T14:27:41;5.20;99.90
53802;DHT22;39709;53.334;6.534;2023-03-08T14:32:35;5.60;99.90
53802;DHT22;39709;53.334;6.534;2023-03-08T14:35:15;5.60;99.90
53802;DHT22;39709;53.334;6.534;2023-03-08T14:37:44;5.40;99.90
53802;DHT22;39709;53.334;6.534;2023-03-08T14:40:27;5.60;99.90
53802;DHT22;39709;53.334;6.534;2023-03-08T14:43:04;5.30;99.90
53802;DHT22;39709;53.334;6.534;2023-03-08T14:48:20;5.50;99.90
53802;DHT22;39709;53.334;6.534;2023-03-08T14:50:59;5.50;99.90
53802;DHT22;39709;53.334;6.534;2023-03-08T14:53:37;5.70;99.90
53802;DHT22;39709;53.334;6.534;2023-03-08T14:56:11;5.60;99.90
53802;DHT22;39709;53.334;6.534;2023-03-08T14:58:40;5.80;99.90
53802;DHT22;39709;53.334;6.534;2023-03-08T15:01:06;5.70;99.90
53802;DHT22;39709;53.334;6.534;2023-03-08T15:03:32;5.70;99.90
53802;DHT22;39709;53.334;6.534;2023-03-08T15:06:04;5.80;99.90
53802;DHT22;39709;53.334;6.534;2023-03-08T15:08:31;5.90;99.90
53802;DHT22;39709;53.334;6.534;2023-03-08T15:10:57;5.70;99.90
53802;DHT22;39709;53.334;6.534;2023-03-08T15:13:22;5.60;99.90
53802;DHT22;39709;53.334;6.534;2023-03-08T15:15:49;5.60;99.90
53802;DHT22;39709;53.334;6.534;2023-03-08T15:18:15;5.80;99.90
53802;DHT22;39709;53.334;6.534;2023-03-08T15:20:43;5.80;99.90
53802;DHT22;39709;53.334;6.534;2023-03-08T15:25:43;5.70;99.90
53802;DHT22;39709;53.334;6.534;2023-03-08T15:28:12;5.70;99.90
53802;DHT22;39709;53.334;6.534;2023-03-08T15:30:38;5.80;99.90
53802;DHT22;39709;53.334;6.534;2023-03-08T15:33:03;5.40;99.90
53802;DHT22;39709;53.334;6.534;2023-03-08T15:35:29;5.20;99.90
53802;DHT22;39709;53.334;6.534;2023-03-08T15:37:55;5.60;99.90
53802;DHT22;39709;53.334;6.534;2023-03-08T15:40:24;5.50;99.90
53802;DHT22;39709;53.334;6.534;2023-03-08T15:42:50;4.70;1.00
53802;DHT22;39709;53.334;6.534;2023-03-08T15:45:16;4.60;1.00
53802;DHT22;39709;53.334;6.534;2023-03-08T15:47:42;5.20;99.90
53802;DHT22;39709;53.334;6.534;2023-03-08T15:50:17;4.50;1.00
53802;DHT22;39709;53.334;6.534;2023-03-08T15:52:43;4.70;22.80
53802;DHT22;39709;53.334;6.534;2023-03-08T15:55:13;4.50;1.00
53802;DHT22;39709;53.334;6.534;2023-03-08T15:57:39;4.50;1.00
53802;DHT22;39709;53.334;6.534;2023-03-08T16:00:06;4.50;6.20
53802;DHT22;39709;53.334;6.534;2023-03-08T16:02:36;4.20;99.90
53802;DHT22;39709;53.334;6.534;2023-03-08T16:05:03;4.50;1.00
53802;DHT22;39709;53.334;6.534;2023-03-08T16:07:30;4.50;1.00
53802;DHT22;39709;53.334;6.534;2023-03-08T16:09:56;4.80;99.90
53802;DHT22;39709;53.334;6.534;2023-03-08T16:12:21;4.90;99.90
53802;DHT22;39709;53.334;6.534;2023-03-08T16:14:48;5.00;99.90
53802;DHT22;39709;53.334;6.534;2023-03-08T16:17:16;4.80;99.90
53802;DHT22;39709;53.334;6.534;2023-03-08T16:19:42;4.50;93.20
53802;DHT22;39709;53.334;6.534;2023-03-08T16:22:08;4.00;1.00
53802;DHT22;39709;53.334;6.534;2023-03-08T16:24:34;3.90;1.00
53802;DHT22;39709;53.334;6.534;2023-03-08T16:27:00;4.00;1.00
53802;DHT22;39709;53.334;6.534;2023-03-08T16:29:29;4.10;1.00
53802;DHT22;39709;53.334;6.534;2023-03-08T16:31:55;4.10;1.00
53802;DHT22;39709;53.334;6.534;2023-03-08T16:34:23;3.90;99.90
53802;DHT22;39709;53.334;6.534;2023-03-08T16:36:50;3.70;1.00
53802;DHT22;39709;53.334;6.534;2023-03-08T16:39:15;3.90;1.00
53802;DHT22;39709;53.334;6.534;2023-03-08T16:41:41;3.80;1.00
53802;DHT22;39709;53.334;6.534;2023-03-08T16:44:18;3.90;99.90
53802;DHT22;39709;53.334;6.534;2023-03-08T16:46:44;3.60;99.90
53802;DHT22;39709;53.334;6.534;2023-03-08T16:49:10;3.60;99.90
53802;DHT22;39709;53.334;6.534;2023-03-08T16:51:36;3.60;99.90
53802;DHT22;39709;53.334;6.534;2023-03-08T16:54:02;3.40;99.90
53802;DHT22;39709;53.334;6.534;2023-03-08T16:56:28;3.40;99.90
53802;DHT22;39709;53.334;6.534;2023-03-08T16:58:56;3.60;99.90
53802;DHT22;39709;53.334;6.534;2023-03-08T17:01:22;3.10;1.00
53802;DHT22;39709;53.334;6.534;2023-03-08T17:03:49;3.50;99.90
53802;DHT22;39709;53.334;6.534;2023-03-08T17:06:17;3.10;99.90
53802;DHT22;39709;53.334;6.534;2023-03-08T17:08:43;3.50;1.00
53802;DHT22;39709;53.334;6.534;2023-03-08T17:11:16;3.00;1.00
53802;DHT22;39709;53.334;6.534;2023-03-08T17:13:42;2.80;1.00
53802;DHT22;39709;53.334;6.534;2023-03-08T17:16:10;3.20;1.00
53802;DHT22;39709;53.334;6.534;2023-03-08T17:18:36;3.30;1.00
53802;DHT22;39709;53.334;6.534;2023-03-08T17:21:04;2.80;1.00
53802;DHT22;39709;53.334;6.534;2023-03-08T17:23:30;3.20;1.00
53802;DHT22;39709;53.334;6.534;2023-03-08T17:25:56;2.80;1.00
53802;DHT22;39709;53.334;6.534;2023-03-08T17:28:22;2.80;1.00
53802;DHT22;39709;53.334;6.534;2023-03-08T17:30:47;2.60;1.00
53802;DHT22;39709;53.334;6.534;2023-03-08T17:33:13;2.80;1.00
53802;DHT22;39709;53.334;6.534;2023-03-08T17:35:39;2.70;1.00
53802;DHT22;39709;53.334;6.534;2023-03-08T17:38:06;2.40;1.00